高雄國際航空站 - 塔台/地面席

METAR RCKH 040300Z 05005KT 010V110 7000 FEW016 BKN100 28/18 Q1016 NOSIG RMK A3002(U)=

站台狀態:Online
最後更新:2020-04-04 11:00:02